Time;durP1;ratioP1;P1;durP2;ratioP2;P2;SDS_P1;SDS_P2;PMS_P1;PMS_P2;Temp;Humidity;BMP_temperature;BMP_pressure;BME280_temperature;BME280_humidity;BME280_pressure;Samples;Min_cycle;Max_cycle;Signal;HPM_P1;HPM_P2
2021/08/20 00:02:07;;;;;;;3.30;2.20;;;;;;;;;;5033634;28;20501;-74
2021/08/20 00:04:33;;;;;;;5.40;2.42;;;;;;;;;;5034072;28;20034;-75
2021/08/20 00:06:59;;;;;;;5.18;2.72;;;;;;;;;;5033852;28;20025;-75
2021/08/20 00:09:26;;;;;;;4.80;2.65;;;;;;;;;;5033479;28;20033;-76
2021/08/20 00:11:52;;;;;;;6.30;2.53;;;;;;;;;;5033071;28;20045;-75
2021/08/20 00:14:18;;;;;;;5.60;2.45;;;;;;;;;;5033428;28;20033;-75
2021/08/20 00:16:44;;;;;;;7.43;2.70;;;;;;;;;;5033995;28;20420;-77
2021/08/20 00:19:10;;;;;;;4.78;2.50;;;;;;;;;;5033438;28;20061;-76
2021/08/20 00:21:36;;;;;;;6.13;2.55;;;;;;;;;;5033411;28;20026;-75
2021/08/20 00:24:03;;;;;;;5.97;2.72;;;;;;;;;;5033288;28;20028;-76
2021/08/20 00:26:29;;;;;;;4.88;3.03;;;;;;;;;;5015626;28;20087;-74
2021/08/20 00:28:55;;;;;;;4.47;2.63;;;;;;;;;;5033310;28;20478;-75
2021/08/20 00:31:21;;;;;;;5.03;2.60;;;;;;;;;;5033229;28;20025;-75
2021/08/20 00:33:47;;;;;;;4.35;2.60;;;;;;;;;;5015510;28;20421;-74
2021/08/20 00:36:13;;;;;;;4.05;2.45;;;;;;;;;;5033232;28;20029;-75
2021/08/20 00:38:39;;;;;;;4.55;2.53;;;;;;;;;;5015496;28;20026;-75
2021/08/20 00:41:09;;;;;;;4.78;2.90;;;;;;;;;;5033184;28;20482;-77
2021/08/20 00:43:35;;;;;;;3.47;2.30;;;;;;;;;;5015419;28;20052;-74
2021/08/20 00:46:02;;;;;;;3.63;2.70;;;;;;;;;;5033118;28;20474;-76
2021/08/20 00:48:29;;;;;;;4.57;2.60;;;;;;;;;;5033370;28;20029;-75
2021/08/20 00:51:18;;;;;;;5.63;3.13;;;;;;;;;;5033636;28;20032;-76
2021/08/20 00:53:45;;;;;;;4.65;2.70;;;;;;;;;;5022742;28;20071;-76
2021/08/20 00:56:11;;;;;;;4.03;2.35;;;;;;;;;;5033021;28;20026;-76
2021/08/20 00:58:37;;;;;;;6.22;2.70;;;;;;;;;;5033486;28;20030;-73
2021/08/20 01:01:04;;;;;;;4.82;2.58;;;;;;;;;;5037300;28;20036;-75
2021/08/20 01:03:30;;;;;;;4.45;2.60;;;;;;;;;;5036913;28;20393;-74
2021/08/20 01:05:57;;;;;;;5.05;2.95;;;;;;;;;;5036929;28;20091;-75
2021/08/20 01:08:24;;;;;;;5.00;3.17;;;;;;;;;;5036810;28;20028;-75
2021/08/20 01:10:50;;;;;;;5.30;2.90;;;;;;;;;;5018869;28;20443;-75
2021/08/20 01:13:17;;;;;;;5.40;2.95;;;;;;;;;;5036813;28;20025;-76
2021/08/20 01:15:43;;;;;;;6.53;2.72;;;;;;;;;;5037064;28;20029;-75
2021/08/20 01:18:10;;;;;;;3.72;2.60;;;;;;;;;;5036925;28;20049;-73
2021/08/20 01:20:36;;;;;;;4.28;2.47;;;;;;;;;;5036645;28;20048;-73
2021/08/20 01:23:06;;;;;;;4.95;2.80;;;;;;;;;;5036576;28;20036;-76
2021/08/20 01:25:34;;;;;;;4.33;2.37;;;;;;;;;;5037172;28;20021;-73
2021/08/20 01:28:10;;;;;;;4.03;2.45;;;;;;;;;;5036825;28;20017;-74
2021/08/20 01:30:36;;;;;;;3.88;2.70;;;;;;;;;;5036481;28;20506;-76
2021/08/20 01:33:02;;;;;;;5.95;2.63;;;;;;;;;;5036461;28;20040;-74
2021/08/20 01:35:28;;;;;;;4.68;2.90;;;;;;;;;;5036414;28;20021;-74
2021/08/20 01:37:54;;;;;;;8.38;3.03;;;;;;;;;;5028775;28;20070;-76
2021/08/20 01:40:20;;;;;;;6.97;3.13;;;;;;;;;;5036821;28;20029;-76
2021/08/20 01:42:46;;;;;;;3.83;2.42;;;;;;;;;;5036529;28;20527;-75
2021/08/20 01:45:12;;;;;;;5.15;2.55;;;;;;;;;;5036090;28;20414;-75
2021/08/20 01:47:38;;;;;;;4.78;2.70;;;;;;;;;;5036133;28;20026;-75
2021/08/20 01:50:06;;;;;;;7.28;3.20;;;;;;;;;;5036084;28;20025;-75
2021/08/20 01:52:32;;;;;;;5.28;2.90;;;;;;;;;;5035969;28;20100;-75
2021/08/20 01:54:58;;;;;;;5.35;2.70;;;;;;;;;;5036194;28;20112;-75
2021/08/20 01:57:24;;;;;;;7.60;3.22;;;;;;;;;;5035850;28;20035;-74
2021/08/20 01:59:50;;;;;;;5.10;3.00;;;;;;;;;;5035816;28;20034;-74
2021/08/20 02:02:16;;;;;;;4.47;2.90;;;;;;;;;;5018028;28;20030;-77
2021/08/20 02:04:42;;;;;;;5.60;2.70;;;;;;;;;;5035677;28;20489;-76
2021/08/20 02:07:08;;;;;;;5.15;2.88;;;;;;;;;;5017958;28;20068;-75
2021/08/20 02:09:34;;;;;;;4.28;2.90;;;;;;;;;;5035580;28;20458;-78
2021/08/20 02:12:00;;;;;;;4.70;3.20;;;;;;;;;;5034493;28;20076;-76
2021/08/20 02:14:26;;;;;;;5.65;2.92;;;;;;;;;;5035578;28;20029;-75
2021/08/20 02:16:52;;;;;;;5.72;3.20;;;;;;;;;;5035538;28;20080;-75
2021/08/20 02:19:18;;;;;;;4.40;2.70;;;;;;;;;;5035486;28;20478;-76
2021/08/20 02:21:44;;;;;;;5.30;2.97;;;;;;;;;;5017666;28;20025;-74
2021/08/20 02:24:10;;;;;;;3.83;2.85;;;;;;;;;;5035275;28;20021;-75
2021/08/20 02:26:36;;;;;;;4.63;2.85;;;;;;;;;;5035600;28;20367;-75
2021/08/20 02:29:02;;;;;;;6.03;2.92;;;;;;;;;;5035291;28;20024;-75
2021/08/20 02:31:28;;;;;;;6.18;2.92;;;;;;;;;;5035798;28;20033;-76
2021/08/20 02:33:54;;;;;;;6.78;3.10;;;;;;;;;;5035470;28;20096;-74
2021/08/20 02:36:20;;;;;;;7.35;3.28;;;;;;;;;;5017389;28;20037;-76
2021/08/20 02:38:47;;;;;;;5.57;3.35;;;;;;;;;;5035437;28;20053;-76
2021/08/20 02:41:13;;;;;;;5.40;3.15;;;;;;;;;;5035447;28;20030;-74
2021/08/20 02:43:39;;;;;;;7.05;3.40;;;;;;;;;;5035194;28;20029;-75
2021/08/20 02:46:05;;;;;;;8.73;3.67;;;;;;;;;;5017211;28;20108;-75
2021/08/20 02:48:32;;;;;;;7.53;3.22;;;;;;;;;;5034933;28;20482;-76
2021/08/20 02:50:58;;;;;;;6.03;3.10;;;;;;;;;;5035158;28;20536;-75
2021/08/20 02:53:24;;;;;;;5.38;2.85;;;;;;;;;;5034809;28;20507;-76
2021/08/20 02:55:50;;;;;;;5.53;2.95;;;;;;;;;;5016956;28;20128;-76
2021/08/20 02:58:16;;;;;;;7.55;3.63;;;;;;;;;;5034743;28;20025;-75
2021/08/20 03:00:42;;;;;;;5.75;3.13;;;;;;;;;;5034955;28;20057;-75
2021/08/20 03:03:08;;;;;;;5.43;3.25;;;;;;;;;;5034511;28;20033;-74
2021/08/20 03:05:34;;;;;;;5.47;3.15;;;;;;;;;;5034870;28;20470;-75
2021/08/20 03:08:00;;;;;;;7.45;3.75;;;;;;;;;;5034434;28;20024;-75
2021/08/20 03:10:26;;;;;;;7.00;3.40;;;;;;;;;;5034320;28;20048;-76
2021/08/20 03:12:52;;;;;;;9.65;3.25;;;;;;;;;;5034488;28;20036;-74
2021/08/20 03:15:18;;;;;;;6.53;3.67;;;;;;;;;;5034453;28;20036;-75
2021/08/20 03:17:44;;;;;;;7.15;3.65;;;;;;;;;;5034365;28;20112;-74
2021/08/20 03:20:10;;;;;;;5.18;3.35;;;;;;;;;;5016529;28;20025;-76
2021/08/20 03:22:36;;;;;;;5.30;3.58;;;;;;;;;;5033562;28;20029;-75
2021/08/20 03:25:02;;;;;;;8.40;4.38;;;;;;;;;;5016402;28;20152;-76
2021/08/20 03:27:28;;;;;;;5.70;3.22;;;;;;;;;;5034515;28;20029;-75
2021/08/20 03:29:54;;;;;;;5.43;3.40;;;;;;;;;;5034476;28;20079;-74
2021/08/20 03:32:20;;;;;;;4.82;3.08;;;;;;;;;;5034144;28;20052;-76
2021/08/20 03:34:46;;;;;;;9.43;3.60;;;;;;;;;;5016394;28;20112;-75
2021/08/20 03:37:13;;;;;;;5.43;3.47;;;;;;;;;;5034116;28;20033;-77
2021/08/20 03:39:39;;;;;;;6.55;3.30;;;;;;;;;;5016262;28;20443;-77
2021/08/20 03:42:05;;;;;;;6.93;3.78;;;;;;;;;;5033978;28;20029;-76
2021/08/20 03:44:31;;;;;;;6.00;3.70;;;;;;;;;;5034402;28;20029;-74
2021/08/20 03:46:57;;;;;;;6.00;3.58;;;;;;;;;;5034171;28;20155;-77
2021/08/20 03:49:23;;;;;;;8.00;4.00;;;;;;;;;;5033829;28;20474;-76
2021/08/20 03:51:49;;;;;;;6.10;3.55;;;;;;;;;;5034062;28;20104;-74
2021/08/20 03:54:15;;;;;;;5.90;3.53;;;;;;;;;;5033818;28;20037;-75
2021/08/20 03:56:42;;;;;;;6.75;3.50;;;;;;;;;;5033754;28;20493;-75
2021/08/20 03:59:08;;;;;;;6.00;3.90;;;;;;;;;;5033712;28;20060;-73
2021/08/20 04:01:34;;;;;;;6.45;3.72;;;;;;;;;;5033650;28;20021;-75
2021/08/20 04:04:01;;;;;;;5.80;3.20;;;;;;;;;;5034100;28;20105;-75
2021/08/20 04:06:27;;;;;;;7.78;3.80;;;;;;;;;;5033953;28;20076;-73
2021/08/20 04:08:53;;;;;;;6.00;3.78;;;;;;;;;;5033480;28;20429;-76
2021/08/20 04:11:19;;;;;;;8.23;3.80;;;;;;;;;;5033298;28;20042;-75
2021/08/20 04:13:45;;;;;;;7.13;3.70;;;;;;;;;;5033799;28;20025;-75
2021/08/20 04:16:11;;;;;;;7.30;4.00;;;;;;;;;;5033721;28;20048;-75
2021/08/20 04:18:40;;;;;;;6.53;4.00;;;;;;;;;;5033461;28;20028;-74
2021/08/20 04:21:06;;;;;;;6.37;3.90;;;;;;;;;;5033900;28;20041;-74
2021/08/20 04:23:32;;;;;;;6.88;4.32;;;;;;;;;;5033288;28;20025;-75
2021/08/20 04:25:58;;;;;;;7.05;4.18;;;;;;;;;;5033330;28;20048;-74
2021/08/20 04:28:24;;;;;;;6.60;3.80;;;;;;;;;;5033302;28;20030;-76
2021/08/20 04:30:50;;;;;;;8.32;4.47;;;;;;;;;;5033540;28;20026;-75
2021/08/20 04:33:16;;;;;;;8.88;4.32;;;;;;;;;;5015322;28;20099;-74
2021/08/20 04:35:43;;;;;;;5.40;3.50;;;;;;;;;;5033058;28;20406;-74
2021/08/20 04:38:09;;;;;;;8.45;4.40;;;;;;;;;;5033199;28;20059;-75
2021/08/20 04:40:35;;;;;;;7.72;4.10;;;;;;;;;;5015451;28;20371;-74
2021/08/20 04:43:01;;;;;;;7.53;4.00;;;;;;;;;;5033061;28;20109;-76
2021/08/20 04:45:27;;;;;;;5.43;3.90;;;;;;;;;;5032973;28;20100;-76
2021/08/20 04:47:53;;;;;;;6.20;3.83;;;;;;;;;;5024905;28;20076;-75
2021/08/20 04:50:20;;;;;;;6.28;4.22;;;;;;;;;;5033396;28;20026;-74
2021/08/20 04:52:46;;;;;;;9.30;4.15;;;;;;;;;;5033396;28;20432;-74
2021/08/20 04:55:12;;;;;;;7.70;4.50;;;;;;;;;;5033081;28;20025;-78
2021/08/20 04:57:38;;;;;;;6.78;3.88;;;;;;;;;;5033288;28;20033;-75
2021/08/20 05:00:06;;;;;;;7.15;3.85;;;;;;;;;;5033012;28;20026;-76
2021/08/20 05:02:34;;;;;;;6.43;3.53;;;;;;;;;;5032976;28;20379;-74
2021/08/20 05:05:01;;;;;;;7.30;4.20;;;;;;;;;;5033189;28;20025;-74
2021/08/20 05:07:27;;;;;;;5.82;4.40;;;;;;;;;;5032871;28;20105;-75
2021/08/20 05:09:53;;;;;;;7.40;4.15;;;;;;;;;;5032782;28;20017;-75
2021/08/20 05:12:19;;;;;;;7.43;4.10;;;;;;;;;;5015205;28;20033;-75
2021/08/20 05:14:45;;;;;;;6.75;3.88;;;;;;;;;;5032885;28;20104;-75
2021/08/20 05:17:11;;;;;;;5.82;3.80;;;;;;;;;;5032876;28;20060;-76
2021/08/20 05:19:37;;;;;;;8.45;4.00;;;;;;;;;;5032854;28;20025;-72
2021/08/20 05:22:03;;;;;;;6.43;3.72;;;;;;;;;;5033393;28;20033;-76
2021/08/20 05:24:29;;;;;;;7.65;4.35;;;;;;;;;;5033039;28;20048;-74
2021/08/20 05:26:55;;;;;;;6.78;4.15;;;;;;;;;;5032780;28;20036;-77
2021/08/20 05:29:21;;;;;;;7.07;4.20;;;;;;;;;;5032729;28;20021;-76
2021/08/20 05:31:47;;;;;;;5.60;4.13;;;;;;;;;;5032711;28;20033;-78
2021/08/20 05:34:13;;;;;;;6.13;3.70;;;;;;;;;;5014937;28;20032;-76
2021/08/20 05:36:39;;;;;;;6.20;3.90;;;;;;;;;;5032679;28;20072;-74
2021/08/20 05:39:05;;;;;;;7.50;4.45;;;;;;;;;;5032661;28;20033;-77
2021/08/20 05:41:31;;;;;;;7.10;4.18;;;;;;;;;;5032632;28;20029;-76
2021/08/20 05:43:58;;;;;;;6.60;3.80;;;;;;;;;;5032567;28;20033;-76
2021/08/20 05:46:24;;;;;;;6.10;3.80;;;;;;;;;;5034315;28;20025;-75
2021/08/20 05:48:50;;;;;;;6.43;3.90;;;;;;;;;;5036169;28;20076;-74
2021/08/20 05:51:16;;;;;;;5.75;3.42;;;;;;;;;;5036097;28;20048;-77
2021/08/20 05:53:42;;;;;;;6.18;3.70;;;;;;;;;;5036089;28;20029;-73
2021/08/20 05:56:08;;;;;;;9.23;3.90;;;;;;;;;;5036040;28;20462;-74
2021/08/20 05:58:34;;;;;;;9.85;4.20;;;;;;;;;;5036006;28;20028;-75
2021/08/20 06:01:00;;;;;;;7.45;4.20;;;;;;;;;;5036166;28;20033;-75
2021/08/20 06:03:26;;;;;;;7.95;4.10;;;;;;;;;;5018022;28;20072;-77
2021/08/20 06:05:52;;;;;;;7.28;4.10;;;;;;;;;;5035819;28;20032;-75
2021/08/20 06:08:18;;;;;;;8.57;4.20;;;;;;;;;;5035875;28;20381;-73
2021/08/20 06:10:45;;;;;;;6.30;4.00;;;;;;;;;;5035540;28;20049;-75
2021/08/20 06:13:11;;;;;;;7.43;4.07;;;;;;;;;;5036008;28;20593;-75
2021/08/20 06:15:38;;;;;;;5.72;4.10;;;;;;;;;;5035625;28;20415;-75
2021/08/20 06:18:04;;;;;;;6.80;4.20;;;;;;;;;;5035628;28;20068;-74
2021/08/20 06:20:30;;;;;;;7.38;4.78;;;;;;;;;;5035557;28;20104;-75
2021/08/20 06:22:56;;;;;;;5.75;3.90;;;;;;;;;;5035806;28;20049;-75
2021/08/20 06:25:22;;;;;;;8.77;3.70;;;;;;;;;;5035400;28;20059;-75
2021/08/20 06:27:48;;;;;;;7.93;4.07;;;;;;;;;;5035387;28;20032;-76
2021/08/20 06:30:14;;;;;;;5.45;3.70;;;;;;;;;;5035675;28;20030;-74
2021/08/20 06:32:40;;;;;;;5.03;3.65;;;;;;;;;;5035365;28;20524;-76
2021/08/20 06:35:06;;;;;;;7.65;4.07;;;;;;;;;;5035587;28;20029;-77
2021/08/20 06:37:32;;;;;;;4.50;3.28;;;;;;;;;;5035579;28;20029;-74
2021/08/20 06:39:58;;;;;;;5.93;3.70;;;;;;;;;;5035483;28;20386;-74
2021/08/20 06:42:24;;;;;;;6.82;4.18;;;;;;;;;;5035184;28;20064;-76
2021/08/20 06:44:50;;;;;;;7.15;3.78;;;;;;;;;;5035363;28;20030;-75
2021/08/20 06:47:17;;;;;;;6.38;3.90;;;;;;;;;;5035346;28;20018;-74
2021/08/20 06:49:43;;;;;;;7.53;3.40;;;;;;;;;;5035296;28;20024;-73
2021/08/20 06:52:09;;;;;;;5.75;3.85;;;;;;;;;;5035008;28;20028;-76
2021/08/20 06:54:35;;;;;;;6.90;4.28;;;;;;;;;;5035205;28;20036;-73
2021/08/20 06:57:01;;;;;;;5.90;4.03;;;;;;;;;;5034674;28;20385;-76
2021/08/20 06:59:27;;;;;;;8.10;4.05;;;;;;;;;;5034875;28;20034;-74
2021/08/20 07:01:53;;;;;;;8.10;4.22;;;;;;;;;;5017054;28;20112;-74
2021/08/20 07:04:19;;;;;;;7.22;4.22;;;;;;;;;;5034769;28;20104;-74
2021/08/20 07:06:45;;;;;;;7.20;4.50;;;;;;;;;;5034716;28;20025;-74
2021/08/20 07:09:11;;;;;;;7.22;4.18;;;;;;;;;;5034603;28;20027;-74
2021/08/20 07:11:37;;;;;;;8.15;4.28;;;;;;;;;;5034383;28;20075;-74
2021/08/20 07:14:03;;;;;;;7.20;4.38;;;;;;;;;;5034826;28;20026;-74
2021/08/20 07:16:29;;;;;;;6.22;4.10;;;;;;;;;;5034805;28;20048;-75
2021/08/20 07:18:55;;;;;;;8.55;4.20;;;;;;;;;;5034451;28;20112;-77
2021/08/20 07:21:21;;;;;;;5.55;4.10;;;;;;;;;;5034711;28;20057;-74
2021/08/20 07:23:47;;;;;;;10.35;4.30;;;;;;;;;;5034330;28;20486;-76
2021/08/20 07:26:15;;;;;;;9.35;4.55;;;;;;;;;;5034638;28;20067;-76
2021/08/20 07:28:41;;;;;;;7.20;3.92;;;;;;;;;;5034601;28;20033;-75
2021/08/20 07:31:07;;;;;;;6.90;4.03;;;;;;;;;;5034255;28;20026;-74
2021/08/20 07:33:33;;;;;;;7.03;4.22;;;;;;;;;;5034205;28;20052;-74
2021/08/20 07:35:59;;;;;;;8.40;3.92;;;;;;;;;;5034202;28;20075;-74
2021/08/20 07:38:25;;;;;;;7.05;4.20;;;;;;;;;;5034126;28;20103;-74
2021/08/20 07:40:51;;;;;;;7.20;3.90;;;;;;;;;;5034359;28;20060;-74
2021/08/20 07:43:18;;;;;;;9.68;4.22;;;;;;;;;;5033965;28;20060;-75
2021/08/20 07:45:44;;;;;;;6.22;3.80;;;;;;;;;;5034265;28;20022;-76
2021/08/20 07:48:12;;;;;;;6.32;4.20;;;;;;;;;;5034485;28;20548;-78
2021/08/20 07:50:38;;;;;;;6.07;3.97;;;;;;;;;;5033955;28;20025;-75
2021/08/20 07:53:04;;;;;;;4.78;3.58;;;;;;;;;;5034117;28;20026;-75
2021/08/20 07:55:30;;;;;;;7.10;4.22;;;;;;;;;;5033857;28;20432;-76
2021/08/20 07:57:56;;;;;;;7.13;3.88;;;;;;;;;;5033783;28;20029;-77
2021/08/20 08:00:30;;;;;;;5.88;3.47;;;;;;;;;;5033737;28;20079;-72
2021/08/20 08:02:56;;;;;;;6.70;3.60;;;;;;;;;;5034027;28;20038;-76
2021/08/20 08:05:22;;;;;;;6.53;3.72;;;;;;;;;;5033546;28;20031;-75
2021/08/20 08:07:49;;;;;;;6.65;3.70;;;;;;;;;;5033520;28;20489;-76
2021/08/20 08:10:16;;;;;;;7.13;4.10;;;;;;;;;;5032788;28;20045;-75
2021/08/20 08:12:42;;;;;;;7.13;4.18;;;;;;;;;;5033541;28;20052;-74
2021/08/20 08:15:08;;;;;;;7.00;4.20;;;;;;;;;;5033796;28;20555;-75
2021/08/20 08:17:38;;;;;;;6.25;3.67;;;;;;;;;;5033504;28;20052;-73
2021/08/20 08:20:05;;;;;;;7.63;3.95;;;;;;;;;;5033460;28;20116;-78
2021/08/20 08:22:31;;;;;;;5.50;4.05;;;;;;;;;;5033404;28;20053;-76
2021/08/20 08:24:57;;;;;;;6.47;3.30;;;;;;;;;;5033309;28;20022;-75
2021/08/20 08:27:23;;;;;;;5.32;3.40;;;;;;;;;;5033342;28;20484;-75
2021/08/20 08:29:49;;;;;;;8.05;3.95;;;;;;;;;;5033835;28;20021;-77
2021/08/20 08:32:15;;;;;;;4.40;2.90;;;;;;;;;;5015553;28;20052;-75
2021/08/20 08:34:41;;;;;;;5.18;3.08;;;;;;;;;;5033508;28;20029;-75
2021/08/20 08:37:07;;;;;;;5.65;3.15;;;;;;;;;;5015499;28;20055;-75
2021/08/20 08:39:34;;;;;;;4.97;2.78;;;;;;;;;;5033199;28;20049;-76
2021/08/20 08:42:00;;;;;;;6.22;2.50;;;;;;;;;;5033214;28;20029;-75
2021/08/20 08:44:26;;;;;;;4.72;2.70;;;;;;;;;;5016176;28;20030;-75
2021/08/20 08:46:52;;;;;;;4.72;2.47;;;;;;;;;;5033150;28;20493;-75
2021/08/20 08:49:22;;;;;;;5.30;2.60;;;;;;;;;;5033090;28;20029;-74
2021/08/20 08:51:49;;;;;;;6.78;3.20;;;;;;;;;;5033678;28;20033;-75
2021/08/20 08:54:16;;;;;;;6.35;2.70;;;;;;;;;;5033628;28;20079;-76
2021/08/20 08:56:43;;;;;;;4.93;3.00;;;;;;;;;;5033103;28;20568;-73
2021/08/20 08:59:09;;;;;;;5.10;3.00;;;;;;;;;;5033360;28;20021;-74
2021/08/20 09:01:38;;;;;;;7.63;3.03;;;;;;;;;;5015344;28;20378;-74
2021/08/20 09:04:14;;;;;;;5.63;2.90;;;;;;;;;;5032975;28;20087;-76
2021/08/20 09:06:46;;;;;;;2.97;2.28;;;;;;;;;;5032980;28;20085;-75
2021/08/20 09:09:16;;;;;;;2.50;1.70;;;;;;;;;;5032883;28;20024;-75
2021/08/20 09:11:43;;;;;;;4.88;2.33;;;;;;;;;;5032508;28;20045;-75
2021/08/20 09:14:11;;;;;;;3.00;2.20;;;;;;;;;;5032892;28;20060;-77
2021/08/20 09:16:37;;;;;;;2.65;1.67;;;;;;;;;;5032898;28;20597;-74
2021/08/20 09:19:08;;;;;;;4.03;2.78;;;;;;;;;;5015163;28;20030;-75
2021/08/20 09:21:34;;;;;;;3.08;2.10;;;;;;;;;;5036237;28;20048;-75
2021/08/20 09:24:00;;;;;;;4.20;2.25;;;;;;;;;;5036843;28;20026;-75
2021/08/20 09:26:26;;;;;;;3.60;2.10;;;;;;;;;;5036886;28;20100;-75
2021/08/20 09:28:53;;;;;;;5.03;2.10;;;;;;;;;;5037087;28;20076;-74
2021/08/20 09:31:22;;;;;;;3.22;2.08;;;;;;;;;;5036778;28;20013;-75
2021/08/20 09:33:51;;;;;;;2.67;1.85;;;;;;;;;;5036503;28;20029;-75
2021/08/20 09:36:19;;;;;;;2.63;1.60;;;;;;;;;;5036497;28;20057;-76
2021/08/20 09:38:57;;;;;;;2.72;1.98;;;;;;;;;;5036419;28;20025;-74
2021/08/20 09:41:31;;;;;;;3.83;2.10;;;;;;;;;;5018581;28;20401;-76
2021/08/20 09:44:00;;;;;;;2.75;1.63;;;;;;;;;;5036275;28;20075;-75
2021/08/20 09:46:38;;;;;;;2.47;1.45;;;;;;;;;;5018530;28;20071;-76
2021/08/20 09:49:04;;;;;;;3.25;1.70;;;;;;;;;;5036508;28;20032;-75
2021/08/20 09:51:45;;;;;;;1.85;1.60;;;;;;;;;;5036435;28;20025;-76
2021/08/20 09:54:17;;;;;;;2.55;1.80;;;;;;;;;;5036151;28;20104;-75
2021/08/20 09:56:44;;;;;;;4.53;2.00;;;;;;;;;;5036673;28;20425;-74
2021/08/20 09:59:11;;;;;;;3.10;2.00;;;;;;;;;;5036018;28;20080;-74
2021/08/20 10:01:38;;;;;;;4.22;1.80;;;;;;;;;;5035991;28;20029;-75
2021/08/20 10:04:05;;;;;;;3.50;1.92;;;;;;;;;;5035840;28;20022;-75
2021/08/20 10:06:33;;;;;;;4.57;1.80;;;;;;;;;;5036156;28;20032;-76
2021/08/20 10:09:01;;;;;;;4.47;1.60;;;;;;;;;;5035943;28;20029;-74
2021/08/20 10:11:28;;;;;;;2.47;1.70;;;;;;;;;;5035705;28;20057;-74
2021/08/20 10:13:56;;;;;;;5.13;1.73;;;;;;;;;;5027838;28;20049;-74
2021/08/20 10:16:22;;;;;;;1.92;1.50;;;;;;;;;;5035623;28;20461;-75
2021/08/20 10:18:49;;;;;;;3.42;1.50;;;;;;;;;;5035601;28;20390;-75
2021/08/20 10:21:16;;;;;;;3.10;1.60;;;;;;;;;;5035643;28;20375;-73
2021/08/20 10:23:42;;;;;;;4.22;1.60;;;;;;;;;;5035378;28;20026;-74
2021/08/20 10:26:10;;;;;;;2.72;1.65;;;;;;;;;;5035472;28;20036;-73
2021/08/20 10:28:38;;;;;;;3.97;1.73;;;;;;;;;;5035314;28;20023;-74
2021/08/20 10:31:04;;;;;;;3.67;1.70;;;;;;;;;;5035330;28;20021;-74
2021/08/20 10:33:31;;;;;;;2.30;1.35;;;;;;;;;;5035188;28;20049;-74
2021/08/20 10:35:58;;;;;;;1.80;1.70;;;;;;;;;;5035426;28;20532;-74
2021/08/20 10:38:33;;;;;;;2.58;1.30;;;;;;;;;;5035599;28;20018;-74
2021/08/20 10:41:16;;;;;;;1.85;1.30;;;;;;;;;;5035475;28;20017;-73
2021/08/20 10:43:57;;;;;;;1.70;1.38;;;;;;;;;;5035533;28;20497;-72
2021/08/20 10:46:36;;;;;;;1.95;1.20;;;;;;;;;;5035781;28;20064;-75
2021/08/20 10:49:11;;;;;;;2.45;1.30;;;;;;;;;;5035154;28;20490;-73
2021/08/20 10:51:52;;;;;;;3.60;1.40;;;;;;;;;;5035387;28;20068;-75
2021/08/20 10:54:42;;;;;;;4.15;1.80;;;;;;;;;;5035477;28;20033;-74
2021/08/20 10:57:31;;;;;;;4.03;1.60;;;;;;;;;;4996722;28;20041;-74
2021/08/20 10:59:57;;;;;;;3.87;1.70;;;;;;;;;;5034767;28;20025;-72
2021/08/20 11:02:23;;;;;;;5.45;1.85;;;;;;;;;;5034846;28;20044;-75
2021/08/20 11:05:03;;;;;;;3.40;2.00;;;;;;;;;;5017002;28;20033;-77
2021/08/20 11:07:35;;;;;;;3.15;1.88;;;;;;;;;;5034662;28;20018;-73
2021/08/20 11:10:01;;;;;;;2.53;1.58;;;;;;;;;;5034678;28;20022;-75
2021/08/20 11:12:48;;;;;;;1.52;1.42;;;;;;;;;;5034098;28;20053;-75
2021/08/20 11:15:24;;;;;;;3.38;1.63;;;;;;;;;;5034438;28;20053;-73
2021/08/20 11:18:04;;;;;;;2.63;1.55;;;;;;;;;;5034968;28;20025;-75
2021/08/20 11:20:30;;;;;;;;;;;;;;;;;;5035437;28;20021;-74
2021/08/20 11:25:57;;;;;;;3.92;1.98;;;;;;;;;;5035068;28;20026;-74
2021/08/20 11:28:25;;;;;;;2.33;1.50;;;;;;;;;;5025438;28;20109;-73
2021/08/20 11:30:58;;;;;;;3.03;1.33;;;;;;;;;;5034289;28;20565;-73
2021/08/20 11:33:43;;;;;;;4.10;1.75;;;;;;;;;;5034157;28;20025;-74
2021/08/20 11:36:13;;;;;;;3.22;1.83;;;;;;;;;;5016158;28;20018;-73
2021/08/20 11:38:46;;;;;;;4.13;2.13;;;;;;;;;;5034068;28;20022;-75
2021/08/20 11:41:20;;;;;;;3.50;1.70;;;;;;;;;;5034017;28;20017;-75
2021/08/20 11:43:47;;;;;;;3.15;1.92;;;;;;;;;;5033441;28;20029;-73
2021/08/20 11:46:14;;;;;;;3.22;1.98;;;;;;;;;;5033950;28;20543;-73
2021/08/20 11:48:44;;;;;;;2.78;1.60;;;;;;;;;;5033961;28;20109;-74
2021/08/20 11:51:10;;;;;;;;;;;;;;;;;;5034624;28;20375;-76
2021/08/20 11:53:37;;;;;;;1.95;1.58;;;;;;;;;;5016138;28;20020;-75
2021/08/20 11:56:13;;;;;;;2.45;1.38;;;;;;;;;;5033903;28;20022;-74
2021/08/20 11:58:40;;;;;;;1.88;1.45;;;;;;;;;;5033728;28;20075;-76
2021/08/20 12:01:11;;;;;;;2.33;1.42;;;;;;;;;;5033717;28;20051;-73
2021/08/20 12:03:43;;;;;;;2.08;1.33;;;;;;;;;;5033933;28;20544;-73
2021/08/20 12:06:10;;;;;;;1.95;1.30;;;;;;;;;;5033645;28;20025;-74
2021/08/20 12:08:37;;;;;;;2.92;1.45;;;;;;;;;;5033727;28;20026;-73
2021/08/20 12:11:03;;;;;;;1.33;1.23;;;;;;;;;;5033602;28;20052;-73
2021/08/20 12:13:29;;;;;;;1.88;1.27;;;;;;;;;;5033485;28;20022;-73
2021/08/20 12:15:56;;;;;;;1.27;1.13;;;;;;;;;;5033998;28;20389;-73
2021/08/20 12:18:23;;;;;;;1.48;1.23;;;;;;;;;;5033440;28;20022;-73
2021/08/20 12:20:50;;;;;;;1.60;1.15;;;;;;;;;;5033331;28;20033;-73
2021/08/20 12:23:16;;;;;;;1.85;1.50;;;;;;;;;;5033395;28;20022;-73
2021/08/20 12:25:42;;;;;;;2.95;1.30;;;;;;;;;;5033244;28;20036;-73
2021/08/20 12:28:13;;;;;;;1.17;1.08;;;;;;;;;;5033574;28;20021;-73
2021/08/20 12:30:39;;;;;;;1.80;1.02;;;;;;;;;;5033334;28;20021;-73
2021/08/20 12:33:05;;;;;;;2.42;1.17;;;;;;;;;;5033300;28;20026;-73
2021/08/20 12:35:31;;;;;;;2.25;1.00;;;;;;;;;;5033237;28;20037;-73
2021/08/20 12:38:16;;;;;;;2.25;1.13;;;;;;;;;;5033455;28;20385;-73
2021/08/20 12:40:43;;;;;;;1.58;0.90;;;;;;;;;;5033378;28;20038;-73
2021/08/20 12:43:24;;;;;;;2.25;1.00;;;;;;;;;;5033150;28;20426;-73
2021/08/20 12:46:23;;;;;;;1.20;0.90;;;;;;;;;;5033688;28;20025;-73
2021/08/20 12:48:55;;;;;;;3.05;1.13;;;;;;;;;;4990091;28;20042;-71
2021/08/20 12:51:21;;;;;;;2.67;0.85;;;;;;;;;;5032933;28;20021;-72
2021/08/20 12:54:00;;;;;;;1.73;1.23;;;;;;;;;;5033010;28;20397;-73
2021/08/20 12:56:36;;;;;;;1.20;1.05;;;;;;;;;;5036806;28;20474;-73
2021/08/20 12:59:05;;;;;;;2.03;1.10;;;;;;;;;;5037417;28;20072;-72
2021/08/20 13:01:31;;;;;;;1.63;1.13;;;;;;;;;;5037076;28;20025;-73
2021/08/20 13:03:57;;;;;;;2.35;1.20;;;;;;;;;;5037005;28;20079;-73
2021/08/20 13:06:23;;;;;;;2.17;1.00;;;;;;;;;;5037329;28;20029;-73
2021/08/20 13:08:49;;;;;;;1.38;1.00;;;;;;;;;;5036925;28;20022;-72
2021/08/20 13:11:16;;;;;;;1.60;1.00;;;;;;;;;;5036764;28;20379;-72
2021/08/20 13:13:42;;;;;;;2.05;1.33;;;;;;;;;;5037125;28;20022;-72
2021/08/20 13:16:08;;;;;;;3.58;1.30;;;;;;;;;;5037339;28;20030;-72
2021/08/20 13:18:34;;;;;;;2.42;1.30;;;;;;;;;;5037047;28;20030;-72
2021/08/20 13:21:01;;;;;;;2.38;1.30;;;;;;;;;;5036682;28;20028;-72
2021/08/20 13:23:27;;;;;;;1.17;0.90;;;;;;;;;;5036502;28;20044;-72
2021/08/20 13:25:54;;;;;;;1.88;1.30;;;;;;;;;;5018783;28;20029;-72
2021/08/20 13:28:20;;;;;;;1.48;1.33;;;;;;;;;;5036814;28;20029;-72
2021/08/20 13:30:46;;;;;;;1.30;0.90;;;;;;;;;;5036821;28;20033;-72
2021/08/20 13:33:12;;;;;;;1.98;1.40;;;;;;;;;;5036787;28;20139;-72
2021/08/20 13:35:39;;;;;;;1.48;1.15;;;;;;;;;;5036358;28;20029;-72
2021/08/20 13:38:05;;;;;;;1.08;1.00;;;;;;;;;;5036625;28;20036;-73
2021/08/20 13:40:35;;;;;;;1.42;0.90;;;;;;;;;;5036292;28;20395;-72
2021/08/20 13:43:09;;;;;;;1.60;1.02;;;;;;;;;;5036655;28;20052;-72
2021/08/20 13:45:40;;;;;;;1.48;0.90;;;;;;;;;;5036803;28;20450;-72
2021/08/20 13:48:06;;;;;;;2.35;1.10;;;;;;;;;;5036310;28;20022;-72
2021/08/20 13:50:32;;;;;;;0.80;0.70;;;;;;;;;;5036415;28;20501;-72
2021/08/20 13:52:58;;;;;;;1.30;1.13;;;;;;;;;;5036649;28;20033;-72
2021/08/20 13:55:25;;;;;;;1.27;1.17;;;;;;;;;;5036037;28;20030;-72
2021/08/20 13:57:51;;;;;;;1.45;1.13;;;;;;;;;;5036047;28;20366;-72
2021/08/20 14:00:17;;;;;;;1.73;1.35;;;;;;;;;;5036271;28;20064;-72
2021/08/20 14:02:43;;;;;;;1.33;0.80;;;;;;;;;;5018147;28;20445;-73
2021/08/20 14:05:09;;;;;;;1.10;1.00;;;;;;;;;;5035818;28;20064;-73
2021/08/20 14:07:36;;;;;;;2.10;1.23;;;;;;;;;;5035058;28;20105;-72
2021/08/20 14:10:02;;;;;;;2.15;1.30;;;;;;;;;;5035936;28;20549;-72
2021/08/20 14:12:28;;;;;;;1.33;1.23;;;;;;;;;;5035604;28;20041;-72
2021/08/20 14:14:54;;;;;;;1.65;1.30;;;;;;;;;;5035800;28;20091;-72
2021/08/20 14:17:20;;;;;;;1.08;0.90;;;;;;;;;;5035880;28;20438;-72
2021/08/20 14:19:46;;;;;;;1.38;1.20;;;;;;;;;;5035697;28;20026;-72
2021/08/20 14:22:12;;;;;;;2.00;1.30;;;;;;;;;;5035507;28;20496;-72
2021/08/20 14:24:38;;;;;;;2.10;1.27;;;;;;;;;;5035366;28;20037;-72
2021/08/20 14:27:04;;;;;;;5.82;1.52;;;;;;;;;;5035835;28;20028;-72
2021/08/20 14:29:30;;;;;;;2.88;1.13;;;;;;;;;;5035626;28;20025;-72
2021/08/20 14:31:56;;;;;;;2.13;1.10;;;;;;;;;;5035654;28;20489;-72
2021/08/20 14:34:22;;;;;;;2.22;1.27;;;;;;;;;;5035589;28;20025;-72
2021/08/20 14:36:48;;;;;;;1.77;1.30;;;;;;;;;;5035559;28;20056;-72
2021/08/20 14:39:14;;;;;;;1.30;1.00;;;;;;;;;;5035254;28;20032;-72
2021/08/20 14:41:40;;;;;;;2.88;1.30;;;;;;;;;;5035520;28;20030;-72
2021/08/20 14:44:07;;;;;;;2.85;1.20;;;;;;;;;;5035411;28;20088;-72
2021/08/20 14:46:33;;;;;;;3.50;1.30;;;;;;;;;;5035096;28;20033;-72
2021/08/20 14:48:59;;;;;;;2.63;1.20;;;;;;;;;;5034983;28;20022;-72